Hoffman, MN (56339)

6:34 AM CDT on October 31, 2014 (GMT -0500)
Hoffman MN | Change Station
CLOSE
Current Station
Personal Weather Station
Location: Hoffman, MN
Elevation: 1240 ft
Nearby Weather Stations

Elev 1240 ft 45.83 °N, 95.78 °W | Updated 1 minute ago

Clear
Clear
19.2 °F
Feels Like 19 °F
N
2.2
Wind Variable Wind from North
Gusts 4.5 mph

Today
High -- | Low -- °F
--% Chance of Precip.
Yesterday
High -- | Low -- °F
Precip. -- in
8:01 AM 6:10 PM
First Quarter, 54% visible
Pressure 30.57 in
Visibility 10.0 miles
Clouds Clear
Windchill 19 °F
Dew Point 14 °F
Humidity 80%
Rainfall 0.00 in
Snow Depth Not available.
UV 0 out of 12
Pollen .10 out of 12
Air Quality Not available.
Flu Activity Not available.
METAR KY63 311116Z AUTO 31004KT 10SM CLR M07/M08 A3057 RMK AO2 T10721080

More Conditions Fewer Conditions

Pressure 30.57 in
Visibility 10.0 miles
Clouds Clear
Windchill 19 °F
Dew Point 14 °F
Humidity 80%
Rainfall 0.00 in
Snow Depth Not available.
UV 0 out of 12
Pollen .10 out of 12
Air Quality Not available.
Flu Activity Not available.
METAR KY63 311116Z AUTO 31004KT 10SM CLR M07/M08 A3057 RMK AO2 T10721080

More Conditions Fewer Conditions

10-Day Weather Forecast

Almanac

Astronomy

Oct. 31, 2014 Rise Set
Actual Time
Civil Twilight
Nautical Twilight
Astronomical Twilight
Moon
Length of Visible Light
Length of Day
Tomorrow will be .
, % of the Moon is Illuminated

Today's Extremes

State Highs State Lows

Community

WunderPhotos

Upload Photos

1,766,581 photos uploaded!

WunderBlogs® & News

Nearby

Air Quality

  Air Quality AQ Index Pollutant
Not available.

Snow Depth

Station Depth Elevation

Earthquake Activity

City Distance Mag. Time & Date
Minimum magnitude displayed is 2.5.

Coastal Water Temperatures

Place Temperature

Nearby Weather Stations